Buenos resultados de los pilotos saladillenses en el TC Roqueperense

Este domingo se disputó la 5ta fecha de la temporada 2017 del TC Roqueperense en el Autódromo “El Orejano” de Roque Pérez. Alejandro Simincini se quedó con el triunfo en la Clase C, seguido por Pablo Fasano y Fernando Dezeo; mientras que Agustín Berti volvió a ganar en la 128, acompañado en el podio por Felipe Martini y Juan Pozo. En la Turismo Standard, Nahuel Arguindegui fue el ganador, escoltado por el saladillense Elías Gorlero y Daniel Cateneo.

 

Resultados de Clase C – Serie:

Pos. Nombre Clase Vueltas Total T° Dif. resp. 1° Dif. resp. anterior Comentario Mejor Tm
1 87 Simoncini Alejandro Clase C 6 6:20.332 1:02.752
2 99 Lisalde Hernan Clase C 6 6:24.791 4.459 4.459 1:03.091
3 60 Fasano Pablo Clase C 6 6:27.182 6.850 2.391 1:03.379
4 5 Velarde Ezequiel Clase C 6 6:27.900 7.568 0.718 1:04.028
5 200 Mora Ricardo Daniel Clase C 6 6:46.912 26.580 19.012 1:06.826
6 12 Serna Carlos Jeremias Clase C 5 5:22.618 1 Vuelta 1 Vuelta 1:03.105
7 2 Dezeo Fernando Clase C 5 5:43.459 1 Vuelta 20.841 1:03.061
44 Malgor Ricardo Clase C 1 1:10.176 5 Vueltas 4 Vueltas 1:10.176
NE 20 Fructuoso Lucas Clase C 0.000 NE 1 Vuelta

Resultados de Clase C – Final:

Pos. Nombre Clase Vueltas Total T° Dif. resp. 1° Dif. resp. anterior Comentario Mejor Tm
1 87 Simoncini Alejandro Clase C 10 10:58.552 1:02.881
2 60 Fasano Pablo Clase C 10 11:00.607 2.055 2.055 1:04.519
3 2 Dezeo Fernando Clase C 10 11:00.940 2.388 0.333 1:03.752
4 12 Serna Carlos Jeremias Clase C 10 11:02.034 3.482 1.094 1:04.314
5 5 Velarde Ezequiel Clase C 10 11:03.065 4.513 1.031 1:04.678
6 44 Malgor Ricardo Clase C 10 11:35.315 36.763 32.250 1:06.963
7 200 Mora Ricardo Daniel Clase C 8 11:51.674 2 Vueltas 2 Vueltas 1:07.405
99 Lisalde Hernan Clase C 3 3:13.469 7 Vueltas 5 Vueltas 1:03.355
NE 20 Fructuoso Lucas Clase C 0.000 NE 3 Vueltas

Resultados de TP Fiat 128 – Serie:

Pos. Nombre Clase Vueltas Total T° Dif. resp. 1° Dif. resp. anterior Comentario Mejor Tm
1 44 Berti Agustin Turismo Prom. Fiat 128 6 6:23.086 1:03.149
2 3 Sintiolo Justo Turismo Prom. Fiat 128 6 6:26.932 3.846 3.846 1:03.534
3 28 Barone Alejandro Turismo Prom. Fiat 128 6 6:29.776 6.690 2.844 1:04.336
4 20 Villalba Luca Turismo Prom. Fiat 128 6 6:35.234 12.148 5.458 1:04.971
29 Martini Felipe Turismo Prom. Fiat 128 2 2:10.405 4 Vueltas 4 Vueltas 1:03.995
34 Islas Lucas Turismo Prom. Fiat 128 0.000 6 Vueltas 2 Vueltas
NE 99 Pozzo Juan P Turismo Prom. Fiat 128 0.000 NE

Resultados de TP Fiat 128 – Final:

Pos. Nombre Clase Vueltas Total T° Dif. resp. 1° Dif. resp. anterior Comentario Mejor Tm
1 44 Berti Agustin Turismo Prom. Fiat 128 10 12:27.181 1:03.722
2 29 Martini Felipe Turismo Prom. Fiat 128 10 12:27.958 0.777 0.777 1:03.576
3 99 Pozzo Juan P Turismo Prom. Fiat 128 10 12:28.703 1.522 0.745 1:03.673
4 20 Villalba Luca Turismo Prom. Fiat 128 10 12:29.401 2.220 0.698 1:05.178
5 34 Islas Lucas Turismo Prom. Fiat 128 9 12:30.390 1 Vuelta 1 Vuelta 1:12.407
3 Sintiolo Justo Turismo Prom. Fiat 128 7 7:33.241 3 Vueltas 2 Vueltas 1:03.762
28 Barone Alejandro Turismo Prom. Fiat 128 7 7:33.661 3 Vueltas 0.420 1:03.481

Resultados de Turismo Standard – Serie:

Pos. Nombre Clase Vueltas Total T° Dif. resp. 1° Dif. resp. anterior Comentario Mejor Tm
1 77 Espinoza Hugo Turismo Standard 6 6:31.261 1:03.979
2 80 Paulerena Hector Turismo Standard 6 6:33.301 2.040 2.040 1:04.668
3 25 Eguia Juan Jose Turismo Standard 6 6:54.827 23.566 21.526 1:07.300
4 27 Arguindegui Nahuel Turismo Standard 6 6:57.810 26.549 2.983 1:04.671
5 8 Gorlero Elias Turismo Standard 6 7:00.824 29.563 3.014 1:06.366
4 Cateneo Daniel Turismo Standard 2 2:18.886 4 Vueltas 4 Vueltas 1:07.953
91 Kauffer Eduardo Turismo Standard 1 1:22.397 5 Vueltas 1 Vuelta 1:22.397
NE 152 Logarzo Pedro Turismo Standard 0.000 NE 1 Vuelta

Resultados de Turismo Standard – Final:

Pos. Nombre Clase Vueltas Total T° Dif. resp. 1° Dif. resp. anterior Comentario Mejor Tm
1 27 Arguindegui Nahuel Turismo Standard 13 15:58.812 1:03.756
2 8 Gorlero Elias Turismo Standard 13 16:10.337 11.525 11.525 1:06.239
3 4 Cateneo Daniel Turismo Standard 13 16:16.711 17.899 6.374 1:04.625
4 25 Eguia Juan Jose Turismo Standard 13 16:18.588 19.776 1.877 1:07.995
91 Kauffer Eduardo Turismo Standard 7 8:57.423 6 Vueltas 6 Vueltas 1:03.272
77 Espinoza Hugo Turismo Standard 6 7:52.991 7 Vueltas 1 Vuelta 1:03.711
80 Paulerena Hector Turismo Standard 3 3:16.195 10 Vueltas 3 Vueltas 1:04.309
NE 152 Logarzo Pedro Turismo Standard 0.000 NE 3 Vueltas